Al Hillah, Iraq
Current Conditions -  °F | °C
As of 9:00 AM on Thursday 29 Jan 2015 (Local Time) from ORNI Reporting Station
Haze Haze  
Wind Chill: 13°   Ceiling: 10000
Heat Index: 13°   Visibility: 2.1mi
Dew Point:   Wind: 9mph
Humidity: 77%   Direction: 340°NNW
Pressure: 29.97"   Gusts: NA
Location:  32.48°N, 44.46°E
Report Text: ORNI 290600Z 34008KT 3500 HZ FEW040 BKN100 13/09 Q1015 NOSIG
Loading
Personal Weather Stations






























Interactive Weather Map New forecast layout! Learn more

10-Day Weather Forecast

Advertisements
Track Severe Weather on mobile